sensor_id;sensor_type;location;lat;lon;timestamp;P1;durP1;ratioP1;P2;durP2;ratioP2
40793;SDS011;26502;51.886;15.604;2023-04-01T00:01:36;5.60;;;4.40;;
40793;SDS011;26502;51.886;15.604;2023-04-01T00:06:42;7.10;;;4.00;;
40793;SDS011;26502;51.886;15.604;2023-04-01T00:11:51;7.40;;;3.80;;
40793;SDS011;26502;51.886;15.604;2023-04-01T00:16:57;5.30;;;3.90;;
40793;SDS011;26502;51.886;15.604;2023-04-01T00:22:03;9.80;;;5.30;;
40793;SDS011;26502;51.886;15.604;2023-04-01T00:27:10;6.70;;;5.10;;
40793;SDS011;26502;51.886;15.604;2023-04-01T00:32:17;7.60;;;5.00;;
40793;SDS011;26502;51.886;15.604;2023-04-01T00:37:23;5.70;;;3.60;;
40793;SDS011;26502;51.886;15.604;2023-04-01T00:42:30;6.50;;;2.90;;
40793;SDS011;26502;51.886;15.604;2023-04-01T00:47:36;4.50;;;2.70;;
40793;SDS011;26502;51.886;15.604;2023-04-01T00:52:43;8.40;;;2.80;;
40793;SDS011;26502;51.886;15.604;2023-04-01T00:57:50;4.90;;;2.60;;
40793;SDS011;26502;51.886;15.604;2023-04-01T01:02:57;6.90;;;2.70;;
40793;SDS011;26502;51.886;15.604;2023-04-01T01:08:06;5.70;;;2.80;;
40793;SDS011;26502;51.886;15.604;2023-04-01T01:13:22;4.20;;;3.00;;
40793;SDS011;26502;51.886;15.604;2023-04-01T01:18:34;19.20;;;12.40;;
40793;SDS011;26502;51.886;15.604;2023-04-01T01:23:50;16.20;;;11.10;;
40793;SDS011;26502;51.886;15.604;2023-04-01T01:35:14;9.50;;;6.10;;
40793;SDS011;26502;51.886;15.604;2023-04-01T01:40:26;9.20;;;5.70;;
40793;SDS011;26502;51.886;15.604;2023-04-01T01:45:38;5.20;;;3.60;;
40793;SDS011;26502;51.886;15.604;2023-04-01T01:50:50;4.80;;;2.80;;
40793;SDS011;26502;51.886;15.604;2023-04-01T01:55:57;3.60;;;2.60;;
40793;SDS011;26502;51.886;15.604;2023-04-01T02:06:15;6.20;;;2.20;;
40793;SDS011;26502;51.886;15.604;2023-04-01T02:11:26;2.30;;;1.90;;
40793;SDS011;26502;51.886;15.604;2023-04-01T02:16:36;3.50;;;2.00;;
40793;SDS011;26502;51.886;15.604;2023-04-01T02:21:48;4.40;;;2.00;;
40793;SDS011;26502;51.886;15.604;2023-04-01T02:26:58;2.90;;;2.00;;
40793;SDS011;26502;51.886;15.604;2023-04-01T02:32:05;3.10;;;1.70;;
40793;SDS011;26502;51.886;15.604;2023-04-01T02:37:13;3.10;;;1.80;;
40793;SDS011;26502;51.886;15.604;2023-04-01T02:42:20;2.20;;;2.00;;
40793;SDS011;26502;51.886;15.604;2023-04-01T02:47:28;2.60;;;1.70;;
40793;SDS011;26502;51.886;15.604;2023-04-01T02:52:34;5.40;;;2.30;;
40793;SDS011;26502;51.886;15.604;2023-04-01T02:57:42;2.50;;;2.20;;
40793;SDS011;26502;51.886;15.604;2023-04-01T03:02:48;5.30;;;2.20;;
40793;SDS011;26502;51.886;15.604;2023-04-01T03:07:54;5.20;;;2.30;;
40793;SDS011;26502;51.886;15.604;2023-04-01T03:13:00;3.70;;;2.20;;
40793;SDS011;26502;51.886;15.604;2023-04-01T03:18:07;4.00;;;2.00;;
40793;SDS011;26502;51.886;15.604;2023-04-01T03:23:14;4.00;;;2.30;;
40793;SDS011;26502;51.886;15.604;2023-04-01T03:28:22;5.70;;;2.10;;
40793;SDS011;26502;51.886;15.604;2023-04-01T03:33:28;3.30;;;2.10;;
40793;SDS011;26502;51.886;15.604;2023-04-01T03:38:35;3.40;;;2.20;;
40793;SDS011;26502;51.886;15.604;2023-04-01T03:43:42;4.00;;;2.10;;
40793;SDS011;26502;51.886;15.604;2023-04-01T03:48:49;3.90;;;2.30;;
40793;SDS011;26502;51.886;15.604;2023-04-01T03:53:56;2.60;;;2.10;;
40793;SDS011;26502;51.886;15.604;2023-04-01T03:59:03;3.30;;;2.00;;
40793;SDS011;26502;51.886;15.604;2023-04-01T04:04:11;2.90;;;2.30;;
40793;SDS011;26502;51.886;15.604;2023-04-01T04:09:18;2.60;;;2.10;;
40793;SDS011;26502;51.886;15.604;2023-04-01T04:14:24;2.60;;;2.10;;
40793;SDS011;26502;51.886;15.604;2023-04-01T04:19:33;3.70;;;2.50;;
40793;SDS011;26502;51.886;15.604;2023-04-01T04:24:40;3.40;;;2.20;;
40793;SDS011;26502;51.886;15.604;2023-04-01T04:29:49;2.10;;;2.00;;
40793;SDS011;26502;51.886;15.604;2023-04-01T04:34:55;2.30;;;1.80;;
40793;SDS011;26502;51.886;15.604;2023-04-01T04:40:02;3.80;;;2.40;;
40793;SDS011;26502;51.886;15.604;2023-04-01T04:45:10;2.70;;;2.40;;
40793;SDS011;26502;51.886;15.604;2023-04-01T04:50:21;2.10;;;1.90;;
40793;SDS011;26502;51.886;15.604;2023-04-01T04:55:28;2.50;;;2.30;;
40793;SDS011;26502;51.886;15.604;2023-04-01T05:01:06;2.70;;;1.90;;
40793;SDS011;26502;51.886;15.604;2023-04-01T05:06:15;1.70;;;1.40;;
40793;SDS011;26502;51.886;15.604;2023-04-01T05:11:22;4.20;;;1.80;;
40793;SDS011;26502;51.886;15.604;2023-04-01T05:16:31;2.70;;;1.60;;
40793;SDS011;26502;51.886;15.604;2023-04-01T05:21:38;2.00;;;1.80;;
40793;SDS011;26502;51.886;15.604;2023-04-01T05:26:44;3.10;;;2.10;;
40793;SDS011;26502;51.886;15.604;2023-04-01T05:31:51;2.80;;;1.80;;
40793;SDS011;26502;51.886;15.604;2023-04-01T05:36:57;2.90;;;1.90;;
40793;SDS011;26502;51.886;15.604;2023-04-01T05:42:04;1.90;;;1.80;;
40793;SDS011;26502;51.886;15.604;2023-04-01T05:47:11;2.20;;;1.90;;
40793;SDS011;26502;51.886;15.604;2023-04-01T05:52:17;2.10;;;1.90;;
40793;SDS011;26502;51.886;15.604;2023-04-01T05:57:24;1.90;;;1.80;;
40793;SDS011;26502;51.886;15.604;2023-04-01T06:02:30;2.40;;;2.00;;
40793;SDS011;26502;51.886;15.604;2023-04-01T06:07:37;2.00;;;1.80;;
40793;SDS011;26502;51.886;15.604;2023-04-01T06:12:51;1.70;;;1.60;;
40793;SDS011;26502;51.886;15.604;2023-04-01T06:18:13;3.90;;;1.50;;
40793;SDS011;26502;51.886;15.604;2023-04-01T06:23:42;2.40;;;1.80;;
40793;SDS011;26502;51.886;15.604;2023-04-01T06:34:41;2.30;;;2.10;;
40793;SDS011;26502;51.886;15.604;2023-04-01T06:40:16;2.70;;;2.50;;
40793;SDS011;26502;51.886;15.604;2023-04-01T06:45:34;3.40;;;2.60;;
40793;SDS011;26502;51.886;15.604;2023-04-01T06:51:07;3.00;;;2.70;;
40793;SDS011;26502;51.886;15.604;2023-04-01T06:56:42;4.50;;;2.80;;
40793;SDS011;26502;51.886;15.604;2023-04-01T07:01:59;2.90;;;2.60;;
40793;SDS011;26502;51.886;15.604;2023-04-01T07:07:10;3.30;;;3.00;;
40793;SDS011;26502;51.886;15.604;2023-04-01T07:12:31;3.20;;;2.80;;
40793;SDS011;26502;51.886;15.604;2023-04-01T07:18:07;5.60;;;5.10;;
40793;SDS011;26502;51.886;15.604;2023-04-01T07:23:22;4.80;;;3.30;;
40793;SDS011;26502;51.886;15.604;2023-04-01T07:28:43;3.60;;;2.80;;
40793;SDS011;26502;51.886;15.604;2023-04-01T07:34:05;4.60;;;4.00;;
40793;SDS011;26502;51.886;15.604;2023-04-01T07:39:22;3.50;;;3.00;;
40793;SDS011;26502;51.886;15.604;2023-04-01T07:44:42;8.00;;;4.50;;
40793;SDS011;26502;51.886;15.604;2023-04-01T07:49:59;5.90;;;3.70;;
40793;SDS011;26502;51.886;15.604;2023-04-01T07:55:16;4.00;;;3.60;;
40793;SDS011;26502;51.886;15.604;2023-04-01T08:05:45;5.10;;;3.30;;
40793;SDS011;26502;51.886;15.604;2023-04-01T08:10:59;2.80;;;2.30;;
40793;SDS011;26502;51.886;15.604;2023-04-01T08:16:37;5.20;;;4.10;;
40793;SDS011;26502;51.886;15.604;2023-04-01T08:27:03;3.60;;;3.20;;
40793;SDS011;26502;51.886;15.604;2023-04-01T08:32:17;2.20;;;2.00;;
40793;SDS011;26502;51.886;15.604;2023-04-01T08:37:30;3.50;;;2.30;;
40793;SDS011;26502;51.886;15.604;2023-04-01T08:42:48;2.60;;;2.30;;
40793;SDS011;26502;51.886;15.604;2023-04-01T08:48:12;2.50;;;2.10;;
40793;SDS011;26502;51.886;15.604;2023-04-01T08:58:57;2.20;;;2.00;;
40793;SDS011;26502;51.886;15.604;2023-04-01T09:04:17;2.30;;;2.00;;
40793;SDS011;26502;51.886;15.604;2023-04-01T09:09:42;2.40;;;2.10;;
40793;SDS011;26502;51.886;15.604;2023-04-01T09:15:12;2.40;;;2.20;;
40793;SDS011;26502;51.886;15.604;2023-04-01T09:20:59;4.20;;;3.00;;
40793;SDS011;26502;51.886;15.604;2023-04-01T09:32:03;3.50;;;3.10;;
40793;SDS011;26502;51.886;15.604;2023-04-01T09:37:36;3.00;;;2.70;;
40793;SDS011;26502;51.886;15.604;2023-04-01T09:43:12;3.50;;;3.20;;
40793;SDS011;26502;51.886;15.604;2023-04-01T09:48:37;3.20;;;2.90;;
40793;SDS011;26502;51.886;15.604;2023-04-01T09:54:00;4.10;;;3.10;;
40793;SDS011;26502;51.886;15.604;2023-04-01T10:05:24;2.90;;;2.60;;
40793;SDS011;26502;51.886;15.604;2023-04-01T10:22:41;2.90;;;2.60;;
40793;SDS011;26502;51.886;15.604;2023-04-01T10:28:19;4.80;;;2.70;;
40793;SDS011;26502;51.886;15.604;2023-04-01T10:45:37;3.90;;;2.80;;
40793;SDS011;26502;51.886;15.604;2023-04-01T10:51:12;3.10;;;2.80;;
40793;SDS011;26502;51.886;15.604;2023-04-01T10:56:34;3.70;;;2.20;;
40793;SDS011;26502;51.886;15.604;2023-04-01T11:19:04;5.60;;;1.80;;
40793;SDS011;26502;51.886;15.604;2023-04-01T11:24:33;2.70;;;2.30;;
40793;SDS011;26502;51.886;15.604;2023-04-01T11:30:18;3.40;;;2.40;;
40793;SDS011;26502;51.886;15.604;2023-04-01T11:35:39;3.20;;;2.10;;
40793;SDS011;26502;51.886;15.604;2023-04-01T11:40:59;2.40;;;2.20;;
40793;SDS011;26502;51.886;15.604;2023-04-01T11:46:40;2.00;;;1.80;;
40793;SDS011;26502;51.886;15.604;2023-04-01T11:52:03;2.80;;;2.10;;
40793;SDS011;26502;51.886;15.604;2023-04-01T11:57:25;3.30;;;2.30;;
40793;SDS011;26502;51.886;15.604;2023-04-01T12:02:52;2.20;;;2.00;;
40793;SDS011;26502;51.886;15.604;2023-04-01T12:08:18;0.80;;;0.80;;
40793;SDS011;26502;51.886;15.604;2023-04-01T12:13:37;0.80;;;0.70;;
40793;SDS011;26502;51.886;15.604;2023-04-01T12:18:50;0.60;;;0.60;;
40793;SDS011;26502;51.886;15.604;2023-04-01T12:29:52;0.90;;;0.90;;
40793;SDS011;26502;51.886;15.604;2023-04-01T12:46:08;3.10;;;2.90;;
40793;SDS011;26502;51.886;15.604;2023-04-01T12:56:56;3.60;;;3.30;;
40793;SDS011;26502;51.886;15.604;2023-04-01T13:02:20;5.50;;;3.30;;
40793;SDS011;26502;51.886;15.604;2023-04-01T13:07:53;4.80;;;4.40;;
40793;SDS011;26502;51.886;15.604;2023-04-01T13:13:29;4.30;;;3.90;;
40793;SDS011;26502;51.886;15.604;2023-04-01T13:24:02;3.90;;;2.90;;
40793;SDS011;26502;51.886;15.604;2023-04-01T13:29:23;3.80;;;3.20;;
40793;SDS011;26502;51.886;15.604;2023-04-01T13:34:38;4.90;;;3.80;;
40793;SDS011;26502;51.886;15.604;2023-04-01T13:39:56;3.30;;;3.10;;
40793;SDS011;26502;51.886;15.604;2023-04-01T13:45:11;5.00;;;3.70;;
40793;SDS011;26502;51.886;15.604;2023-04-01T13:50:25;3.30;;;3.00;;
40793;SDS011;26502;51.886;15.604;2023-04-01T13:55:47;3.10;;;2.70;;
40793;SDS011;26502;51.886;15.604;2023-04-01T14:01:02;3.10;;;2.90;;
40793;SDS011;26502;51.886;15.604;2023-04-01T14:06:19;2.80;;;2.50;;
40793;SDS011;26502;51.886;15.604;2023-04-01T14:11:35;5.20;;;3.20;;
40793;SDS011;26502;51.886;15.604;2023-04-01T14:22:32;4.00;;;3.50;;
40793;SDS011;26502;51.886;15.604;2023-04-01T14:27:46;5.60;;;4.70;;
40793;SDS011;26502;51.886;15.604;2023-04-01T14:33:10;9.90;;;7.70;;
40793;SDS011;26502;51.886;15.604;2023-04-01T14:38:27;10.20;;;8.10;;
40793;SDS011;26502;51.886;15.604;2023-04-01T14:43:44;9.60;;;8.40;;
40793;SDS011;26502;51.886;15.604;2023-04-01T14:48:59;9.60;;;8.00;;
40793;SDS011;26502;51.886;15.604;2023-04-01T14:54:12;10.50;;;8.50;;
40793;SDS011;26502;51.886;15.604;2023-04-01T14:59:28;11.10;;;8.70;;
40793;SDS011;26502;51.886;15.604;2023-04-01T15:10:03;10.60;;;8.70;;
40793;SDS011;26502;51.886;15.604;2023-04-01T15:15:24;12.70;;;9.50;;
40793;SDS011;26502;51.886;15.604;2023-04-01T15:26:24;11.30;;;8.20;;
40793;SDS011;26502;51.886;15.604;2023-04-01T15:31:39;9.80;;;8.60;;
40793;SDS011;26502;51.886;15.604;2023-04-01T15:36:57;9.20;;;8.00;;
40793;SDS011;26502;51.886;15.604;2023-04-01T15:42:23;8.50;;;7.20;;
40793;SDS011;26502;51.886;15.604;2023-04-01T15:47:52;10.00;;;7.70;;
40793;SDS011;26502;51.886;15.604;2023-04-01T15:53:13;8.00;;;6.70;;
40793;SDS011;26502;51.886;15.604;2023-04-01T15:58:41;8.90;;;7.50;;
40793;SDS011;26502;51.886;15.604;2023-04-01T16:03:59;19.00;;;12.40;;
40793;SDS011;26502;51.886;15.604;2023-04-01T16:09:27;12.50;;;9.90;;
40793;SDS011;26502;51.886;15.604;2023-04-01T16:14:50;14.40;;;11.10;;
40793;SDS011;26502;51.886;15.604;2023-04-01T16:20:14;12.10;;;9.50;;
40793;SDS011;26502;51.886;15.604;2023-04-01T16:25:29;17.40;;;12.60;;
40793;SDS011;26502;51.886;15.604;2023-04-01T16:30:40;14.80;;;12.40;;
40793;SDS011;26502;51.886;15.604;2023-04-01T16:35:52;15.10;;;11.40;;
40793;SDS011;26502;51.886;15.604;2023-04-01T16:41:10;17.00;;;11.60;;
40793;SDS011;26502;51.886;15.604;2023-04-01T16:51:52;16.10;;;12.50;;
40793;SDS011;26502;51.886;15.604;2023-04-01T16:57:09;16.20;;;12.90;;
40793;SDS011;26502;51.886;15.604;2023-04-01T17:02:22;13.70;;;12.00;;
40793;SDS011;26502;51.886;15.604;2023-04-01T17:07:35;14.60;;;11.30;;
40793;SDS011;26502;51.886;15.604;2023-04-01T17:18:03;14.70;;;11.70;;
40793;SDS011;26502;51.886;15.604;2023-04-01T17:23:20;15.60;;;12.00;;
40793;SDS011;26502;51.886;15.604;2023-04-01T17:28:34;17.30;;;13.20;;
40793;SDS011;26502;51.886;15.604;2023-04-01T17:33:53;17.50;;;13.50;;
40793;SDS011;26502;51.886;15.604;2023-04-01T17:39:12;16.30;;;13.20;;
40793;SDS011;26502;51.886;15.604;2023-04-01T17:44:38;18.40;;;14.10;;
40793;SDS011;26502;51.886;15.604;2023-04-01T17:49:56;15.50;;;11.80;;
40793;SDS011;26502;51.886;15.604;2023-04-01T17:55:43;17.30;;;11.70;;
40793;SDS011;26502;51.886;15.604;2023-04-01T18:01:02;15.80;;;12.60;;
40793;SDS011;26502;51.886;15.604;2023-04-01T18:06:18;16.70;;;12.70;;
40793;SDS011;26502;51.886;15.604;2023-04-01T18:11:36;14.00;;;10.00;;
40793;SDS011;26502;51.886;15.604;2023-04-01T18:17:01;15.00;;;10.50;;
40793;SDS011;26502;51.886;15.604;2023-04-01T18:22:22;14.10;;;10.80;;
40793;SDS011;26502;51.886;15.604;2023-04-01T18:27:36;13.80;;;9.60;;
40793;SDS011;26502;51.886;15.604;2023-04-01T18:32:46;14.10;;;11.00;;
40793;SDS011;26502;51.886;15.604;2023-04-01T18:37:58;13.70;;;9.90;;
40793;SDS011;26502;51.886;15.604;2023-04-01T18:43:16;14.30;;;11.00;;
40793;SDS011;26502;51.886;15.604;2023-04-01T18:48:37;11.50;;;8.90;;
40793;SDS011;26502;51.886;15.604;2023-04-01T18:53:54;11.20;;;9.40;;
40793;SDS011;26502;51.886;15.604;2023-04-01T18:59:06;12.40;;;10.60;;
40793;SDS011;26502;51.886;15.604;2023-04-01T19:04:26;12.60;;;9.60;;
40793;SDS011;26502;51.886;15.604;2023-04-01T19:09:44;13.50;;;11.20;;
40793;SDS011;26502;51.886;15.604;2023-04-01T19:14:53;10.60;;;8.40;;
40793;SDS011;26502;51.886;15.604;2023-04-01T19:20:10;12.60;;;8.00;;
40793;SDS011;26502;51.886;15.604;2023-04-01T19:25:29;9.40;;;7.80;;
40793;SDS011;26502;51.886;15.604;2023-04-01T19:30:48;7.50;;;6.70;;
40793;SDS011;26502;51.886;15.604;2023-04-01T19:36:00;8.00;;;6.60;;
40793;SDS011;26502;51.886;15.604;2023-04-01T19:41:19;11.60;;;8.60;;
40793;SDS011;26502;51.886;15.604;2023-04-01T19:46:36;9.10;;;7.00;;
40793;SDS011;26502;51.886;15.604;2023-04-01T19:51:50;10.40;;;8.40;;
40793;SDS011;26502;51.886;15.604;2023-04-01T19:57:04;9.10;;;7.00;;
40793;SDS011;26502;51.886;15.604;2023-04-01T20:02:28;9.00;;;7.50;;
40793;SDS011;26502;51.886;15.604;2023-04-01T20:07:43;8.50;;;6.90;;
40793;SDS011;26502;51.886;15.604;2023-04-01T20:12:57;9.30;;;7.30;;
40793;SDS011;26502;51.886;15.604;2023-04-01T20:18:14;8.50;;;7.00;;
40793;SDS011;26502;51.886;15.604;2023-04-01T20:23:29;8.80;;;7.50;;
40793;SDS011;26502;51.886;15.604;2023-04-01T20:28:44;9.40;;;7.20;;
40793;SDS011;26502;51.886;15.604;2023-04-01T20:39:54;11.50;;;7.50;;
40793;SDS011;26502;51.886;15.604;2023-04-01T20:45:30;10.30;;;7.00;;
40793;SDS011;26502;51.886;15.604;2023-04-01T20:50:44;10.40;;;7.60;;
40793;SDS011;26502;51.886;15.604;2023-04-01T21:01:24;7.00;;;6.00;;
40793;SDS011;26502;51.886;15.604;2023-04-01T21:12:19;9.30;;;5.90;;
40793;SDS011;26502;51.886;15.604;2023-04-01T21:17:36;7.00;;;5.60;;
40793;SDS011;26502;51.886;15.604;2023-04-01T21:22:52;7.70;;;6.20;;
40793;SDS011;26502;51.886;15.604;2023-04-01T21:28:15;6.30;;;5.20;;
40793;SDS011;26502;51.886;15.604;2023-04-01T21:33:34;6.60;;;4.80;;
40793;SDS011;26502;51.886;15.604;2023-04-01T21:38:53;8.40;;;6.00;;
40793;SDS011;26502;51.886;15.604;2023-04-01T21:44:13;7.00;;;5.80;;
40793;SDS011;26502;51.886;15.604;2023-04-01T21:49:48;8.40;;;5.90;;
40793;SDS011;26502;51.886;15.604;2023-04-01T22:00:49;8.10;;;5.30;;
40793;SDS011;26502;51.886;15.604;2023-04-01T22:06:19;7.00;;;5.40;;
40793;SDS011;26502;51.886;15.604;2023-04-01T22:11:36;9.30;;;6.10;;
40793;SDS011;26502;51.886;15.604;2023-04-01T22:16:53;6.60;;;5.40;;
40793;SDS011;26502;51.886;15.604;2023-04-01T22:22:08;6.30;;;4.90;;
40793;SDS011;26502;51.886;15.604;2023-04-01T22:27:23;7.00;;;5.00;;
40793;SDS011;26502;51.886;15.604;2023-04-01T22:32:34;8.40;;;6.60;;
40793;SDS011;26502;51.886;15.604;2023-04-01T22:37:49;6.20;;;4.90;;
40793;SDS011;26502;51.886;15.604;2023-04-01T22:43:05;8.00;;;5.80;;
40793;SDS011;26502;51.886;15.604;2023-04-01T22:48:15;5.60;;;4.80;;
40793;SDS011;26502;51.886;15.604;2023-04-01T22:53:32;7.10;;;4.80;;
40793;SDS011;26502;51.886;15.604;2023-04-01T22:58:52;6.00;;;4.70;;
40793;SDS011;26502;51.886;15.604;2023-04-01T23:04:04;5.40;;;4.40;;
40793;SDS011;26502;51.886;15.604;2023-04-01T23:09:14;5.20;;;4.20;;
40793;SDS011;26502;51.886;15.604;2023-04-01T23:14:34;4.60;;;4.00;;
40793;SDS011;26502;51.886;15.604;2023-04-01T23:19:49;5.20;;;4.30;;
40793;SDS011;26502;51.886;15.604;2023-04-01T23:25:11;4.70;;;3.60;;
40793;SDS011;26502;51.886;15.604;2023-04-01T23:35:53;4.60;;;4.10;;
40793;SDS011;26502;51.886;15.604;2023-04-01T23:41:07;4.30;;;3.70;;
40793;SDS011;26502;51.886;15.604;2023-04-01T23:46:23;5.00;;;4.30;;
40793;SDS011;26502;51.886;15.604;2023-04-01T23:51:35;5.50;;;4.40;;
40793;SDS011;26502;51.886;15.604;2023-04-01T23:56:45;5.70;;;4.80;;
